METAR Data
IDs: Format: Raw Decoded Include TAF

Data at: 0535 UTC 22 Oct 2021

LPPR 220530Z 01004KT 330V030 CAVOK 10/09 Q1022

No METAR found for LPOV

LPMR 220500Z 34007KT 9999 FEW015 12/11 Q1020

No METAR found for LPST

LPPT 220530Z 35008KT 9999 FEW022 14/11 Q1020

LPMT 220500Z 35008KT 310V030 9999 FEW015 16/11 Q1019

LPBJ 220500Z 30008KT CAVOK 10/09 Q1019

LPFR 220530Z 31007KT 270V350 CAVOK 15/10 Q1018

LEVX 220530Z 05004KT CAVOK 10/09 Q1023 NOSIG

LELN 220530Z AUTO VRB02KT CAVOK 03/03 Q1022

LEBG 220530Z AUTO 06003KT 030V090 9000 OVC016 05/04 Q1022

LESA 220530Z 10005KT CAVOK 04/03 Q1021

LEVD 220530Z 08006KT CAVOK 06/04 Q1021

No METAR found for LERJ

LEMD 220530Z 01006KT 340V050 9999 BKN060 12/05 Q1019 NOSIG

LETO 220500Z 04012KT 9999 SCT060 12/05 Q1019 NOSIG

No METAR found for LEGT

LEVS 220500Z 03006KT 330V100 9999 FEW060 12/06 Q1019

LEBZ 220500Z 26006KT CAVOK 09/07 Q1018

LEZL 220530Z 12002KT CAVOK 12/08 Q1016 NOSIG

LEBA 220500Z AUTO 00000KT CAVOK 10/06 Q1016

LERT 220500Z 31006KT CAVOK 15/10 Q1017 NOSIG

No METAR found for LERL

LERS 220530Z 23005KT 200V270 9999 FEW020 14/08 Q1018

LEAB 220500Z 03003KT 360V060 9999 SCT014 BKN027 13/11 Q1017 NOSIG

LEVC 220530Z 36005KT 310V050 9999 FEW030CB BKN060 19/08 Q1016 NOSIG

LELC 220530Z 08012KT 040V120 9999 SCT015 BKN020 21/19 Q1014 NOSIG

No METAR found for LERI

LEMI 220530Z 36005KT 9999 SCT015 BKN020 19/17 Q1015

LEAM 220530Z 36003KT 310V030 9999 FEW070 18/15 Q1014

LEAL 220530Z 31004KT 290V020 9999 FEW042 BKN058 19/15 Q1014 NOSIG

LEVC 220530Z 36005KT 310V050 9999 FEW030CB BKN060 19/08 Q1016 NOSIG

LECH 220530Z AUTO 05007KT 020V110 9000 NCD 14/06 Q1018

No METAR found for LECN

No METAR found for LERE

LETL 220530Z AUTO 34008KT 9999 SCT042 09/03 Q1020

LEZG 220530Z 29009KT CAVOK 10/07 Q1020

LEPP 220530Z 32005KT 290V350 9999 BKN015 BKN025 11/09 Q1021

LEDA 220530Z AUTO 14003KT CAVOK 08/07 Q1019

LEBL 220530Z 32007KT 9999 FEW025 15/12 Q1018 NOSIG

LELL 220500Z AUTO 00000KT 9999 SCT021 BKN028 14/12 Q1018